createdAt,value
2018-01-24T00:00:44.942Z,7.30
2018-01-24T00:01:44.954Z,7.70
2018-01-24T00:02:44.907Z,6.20
2018-01-24T00:03:44.919Z,5.60
2018-01-24T00:04:44.897Z,5.50
2018-01-24T00:05:44.880Z,5.10
2018-01-24T00:06:44.839Z,5.10
2018-01-24T00:07:44.844Z,4.60
2018-01-24T00:08:44.804Z,4.40
2018-01-24T00:09:44.783Z,3.80
2018-01-24T00:10:44.774Z,4.50
2018-01-24T00:11:44.763Z,5.80
2018-01-24T00:12:44.741Z,5.50
2018-01-24T00:13:44.712Z,6.20
2018-01-24T00:14:44.710Z,5.70
2018-01-24T00:15:44.686Z,5.50
2018-01-24T00:16:44.655Z,5.80
2018-01-24T00:17:44.648Z,5.00
2018-01-24T00:18:44.636Z,5.30
2018-01-24T00:19:44.634Z,5.70
2018-01-24T00:20:44.586Z,5.70
2018-01-24T00:21:44.593Z,4.90
2018-01-24T00:22:44.577Z,5.00
2018-01-24T00:23:44.544Z,3.90
2018-01-24T00:24:44.534Z,5.50
2018-01-24T00:25:44.496Z,5.20
2018-01-24T00:26:44.507Z,5.20
2018-01-24T00:27:44.458Z,5.60
2018-01-24T00:28:44.441Z,4.50
2018-01-24T00:29:44.449Z,5.00
2018-01-24T00:30:44.436Z,4.60
2018-01-24T00:31:44.396Z,4.90
2018-01-24T00:32:44.398Z,5.10
2018-01-24T00:33:44.362Z,3.30
2018-01-24T00:34:44.337Z,4.10
2018-01-24T00:35:44.341Z,5.00
2018-01-24T00:36:44.325Z,5.30
2018-01-24T00:37:44.282Z,6.00
2018-01-24T00:38:44.260Z,5.80
2018-01-24T00:39:44.242Z,6.40
2018-01-24T00:40:44.250Z,6.70
2018-01-24T00:41:44.202Z,6.30
2018-01-24T00:42:44.190Z,6.80
2018-01-24T00:43:44.181Z,5.10
2018-01-24T00:44:44.147Z,5.30
2018-01-24T00:45:44.160Z,5.60
2018-01-24T00:46:44.113Z,5.50
2018-01-24T00:47:44.098Z,5.30
2018-01-24T00:48:44.108Z,4.90
2018-01-24T00:49:44.069Z,4.80
2018-01-24T00:50:44.051Z,3.90
2018-01-24T00:51:44.029Z,4.40
2018-01-24T00:52:44.014Z,3.90
2018-01-24T00:53:44.000Z,3.30
2018-01-24T00:54:43.968Z,3.50
2018-01-24T00:55:43.953Z,2.90
2018-01-24T00:56:43.923Z,3.30
2018-01-24T00:57:43.932Z,2.80
2018-01-24T00:58:43.891Z,2.80
2018-01-24T00:59:43.878Z,2.40
2018-01-24T01:00:43.879Z,2.40
2018-01-24T01:01:43.845Z,3.10
2018-01-24T01:02:43.842Z,2.50
2018-01-24T01:03:43.810Z,2.90
2018-01-24T01:04:43.777Z,2.60
2018-01-24T01:05:43.755Z,3.00
2018-01-24T01:06:43.740Z,2.90
2018-01-24T01:07:43.717Z,2.00
2018-01-24T01:08:43.700Z,3.00
2018-01-24T01:09:43.708Z,2.70
2018-01-24T01:10:43.660Z,3.30
2018-01-24T01:11:43.675Z,3.10
2018-01-24T01:12:43.655Z,3.10
2018-01-24T01:13:43.635Z,3.20
2018-01-24T01:14:43.587Z,2.80
2018-01-24T01:15:43.586Z,2.30
2018-01-24T01:16:43.571Z,2.40
2018-01-24T01:17:43.528Z,2.40
2018-01-24T01:18:43.537Z,2.10
2018-01-24T01:19:43.517Z,2.10
2018-01-24T01:20:43.483Z,2.20
2018-01-24T01:21:43.453Z,1.40
2018-01-24T01:22:43.460Z,1.60
2018-01-24T01:23:43.414Z,2.10
2018-01-24T01:24:43.392Z,1.70
2018-01-24T01:25:43.377Z,1.40
2018-01-24T01:26:43.354Z,1.60
2018-01-24T01:27:43.364Z,1.70
2018-01-24T01:28:43.316Z,1.80
2018-01-24T01:29:43.327Z,1.60
2018-01-24T01:30:43.304Z,1.70
2018-01-24T01:31:43.288Z,1.80
2018-01-24T01:32:43.267Z,2.00
2018-01-24T01:33:43.221Z,1.70
2018-01-24T01:34:43.214Z,2.00
2018-01-24T01:35:43.196Z,1.80
2018-01-24T01:36:43.186Z,1.70
2018-01-24T01:37:43.146Z,1.60
2018-01-24T01:38:43.126Z,1.60
2018-01-24T01:39:43.111Z,1.70
2018-01-24T01:40:43.190Z,1.50
2018-01-24T01:41:43.072Z,1.70
2018-01-24T01:42:43.075Z,1.60
2018-01-24T01:43:43.027Z,1.60
2018-01-24T01:44:43.026Z,1.80
2018-01-24T01:45:43.018Z,1.70
2018-01-24T01:46:42.977Z,1.60
2018-01-24T01:47:42.965Z,1.80
2018-01-24T01:48:42.961Z,1.60
2018-01-24T01:49:42.942Z,1.60
2018-01-24T01:50:42.910Z,2.00
2018-01-24T01:51:42.885Z,1.70
2018-01-24T01:52:42.854Z,1.90
2018-01-24T01:53:42.865Z,2.00
2018-01-24T01:54:42.847Z,1.90
2018-01-24T01:55:42.805Z,2.00
2018-01-24T01:56:42.781Z,2.30
2018-01-24T01:57:42.793Z,2.00
2018-01-24T01:58:42.775Z,1.90
2018-01-24T01:59:42.733Z,1.80
2018-01-24T02:00:42.710Z,2.30
2018-01-24T02:01:42.722Z,1.80
2018-01-24T02:02:42.700Z,1.90
2018-01-24T02:03:42.655Z,2.50
2018-01-24T02:04:42.628Z,1.80
2018-01-24T02:05:42.621Z,1.90
2018-01-24T02:06:42.597Z,2.20
2018-01-24T02:07:42.596Z,1.60
2018-01-24T02:08:42.569Z,1.70
2018-01-24T02:09:42.541Z,2.10
2018-01-24T02:10:42.546Z,1.80
2018-01-24T02:11:42.501Z,1.90
2018-01-24T02:12:42.510Z,2.00
2018-01-24T02:13:42.490Z,1.90
2018-01-24T02:14:42.447Z,1.80
2018-01-24T02:15:42.443Z,2.00
2018-01-24T02:16:42.407Z,2.20
2018-01-24T02:17:42.396Z,1.70
2018-01-24T02:18:42.373Z,2.30
2018-01-24T02:19:42.355Z,1.80
2018-01-24T02:20:42.332Z,1.90
2018-01-24T02:21:42.322Z,2.40
2018-01-24T02:22:42.323Z,2.20
2018-01-24T02:23:42.274Z,1.80
2018-01-24T02:24:42.257Z,1.90
2018-01-24T02:25:42.241Z,2.10
2018-01-24T02:26:42.224Z,2.50
2018-01-24T02:27:42.215Z,1.80
2018-01-24T02:28:42.196Z,2.10
2018-01-24T02:29:42.190Z,2.10
2018-01-24T02:30:42.162Z,1.90
2018-01-24T02:31:42.130Z,2.00
2018-01-24T02:32:42.111Z,2.00
2018-01-24T02:33:42.125Z,2.10
2018-01-24T02:34:42.103Z,2.50
2018-01-24T02:35:42.088Z,2.30
2018-01-24T02:36:42.063Z,2.30
2018-01-24T02:37:42.051Z,2.10
2018-01-24T02:38:42.007Z,2.40
2018-01-24T02:39:42.007Z,2.80
2018-01-24T02:40:41.963Z,2.30
2018-01-24T02:41:41.956Z,2.20
2018-01-24T02:42:41.953Z,2.20
2018-01-24T02:43:41.903Z,2.70
2018-01-24T02:44:41.893Z,2.50
2018-01-24T02:45:41.872Z,2.30
2018-01-24T02:46:41.868Z,2.50
2018-01-24T02:47:41.867Z,2.60
2018-01-24T02:48:41.819Z,2.60
2018-01-24T02:49:41.799Z,2.70
2018-01-24T02:50:41.806Z,2.40
2018-01-24T02:51:41.790Z,2.80
2018-01-24T02:52:41.742Z,2.80
2018-01-24T02:53:41.723Z,2.50
2018-01-24T02:54:41.711Z,2.20
2018-01-24T02:55:41.718Z,2.60
2018-01-24T02:56:41.697Z,2.60
2018-01-24T02:57:41.677Z,2.10
2018-01-24T02:58:41.661Z,2.10
2018-01-24T02:59:41.617Z,2.20
2018-01-24T03:00:41.621Z,2.50
2018-01-24T03:01:41.588Z,2.10
2018-01-24T03:02:41.560Z,2.20
2018-01-24T03:03:41.567Z,2.30
2018-01-24T03:04:41.522Z,2.70
2018-01-24T03:05:41.533Z,2.40
2018-01-24T03:06:41.486Z,2.30
2018-01-24T03:07:41.484Z,2.40
2018-01-24T03:08:41.475Z,2.60
2018-01-24T03:09:41.457Z,2.80
2018-01-24T03:10:41.425Z,2.20
2018-01-24T03:11:41.409Z,2.30
2018-01-24T03:12:41.401Z,2.60
2018-01-24T03:13:41.356Z,2.90
2018-01-24T03:14:41.363Z,2.40
2018-01-24T03:15:41.349Z,2.30
2018-01-24T03:16:41.325Z,2.50
2018-01-24T03:17:41.280Z,2.50
2018-01-24T03:18:41.291Z,2.60
2018-01-24T03:19:41.285Z,2.90
2018-01-24T03:20:41.252Z,2.70
2018-01-24T03:21:41.231Z,2.60
2018-01-24T03:22:41.190Z,2.50
2018-01-24T03:23:41.195Z,3.00
2018-01-24T03:24:41.150Z,2.70
2018-01-24T03:25:41.157Z,3.20
2018-01-24T03:26:41.122Z,3.00
2018-01-24T03:27:41.631Z,2.90
2018-01-24T03:28:41.075Z,2.30
2018-01-24T03:29:41.068Z,2.80
2018-01-24T03:30:41.040Z,2.70
2018-01-24T03:31:41.484Z,3.20
2018-01-24T03:32:41.023Z,3.00
2018-01-24T03:33:40.977Z,3.20
2018-01-24T03:34:40.963Z,3.00
2018-01-24T03:35:41.485Z,2.90
2018-01-24T03:36:40.974Z,3.00
2018-01-24T03:37:40.927Z,3.00
2018-01-24T03:38:40.914Z,3.20
2018-01-24T03:39:40.887Z,3.00
2018-01-24T03:40:40.842Z,3.30
2018-01-24T03:41:40.823Z,3.30
2018-01-24T03:42:40.808Z,3.10
2018-01-24T03:43:40.813Z,3.10
2018-01-24T03:44:40.765Z,2.90
2018-01-24T03:45:40.749Z,3.20
2018-01-24T03:46:40.754Z,3.60
2018-01-24T03:47:40.710Z,3.60
2018-01-24T03:48:40.717Z,3.70
2018-01-24T03:49:40.698Z,3.50
2018-01-24T03:50:40.676Z,3.60
2018-01-24T03:51:40.659Z,3.50
2018-01-24T03:52:40.636Z,4.00
2018-01-24T03:53:40.603Z,3.40
2018-01-24T03:54:40.574Z,4.00
2018-01-24T03:55:40.566Z,3.20
2018-01-24T03:56:40.562Z,3.40
2018-01-24T03:57:40.544Z,3.40
2018-01-24T03:58:40.509Z,3.70
2018-01-24T03:59:40.501Z,3.80
2018-01-24T04:00:40.453Z,3.50
2018-01-24T04:01:40.464Z,3.70
2018-01-24T04:02:40.422Z,3.00
2018-01-24T04:03:40.406Z,3.90
2018-01-24T04:04:40.385Z,3.60
2018-01-24T04:05:40.356Z,3.40
2018-01-24T04:06:40.347Z,3.60
2018-01-24T04:07:40.320Z,4.20
2018-01-24T04:08:40.326Z,3.80
2018-01-24T04:09:40.307Z,4.20
2018-01-24T04:10:40.266Z,3.80
2018-01-24T04:11:40.275Z,4.00
2018-01-24T04:12:40.226Z,4.00
2018-01-24T04:13:40.204Z,3.80
2018-01-24T04:14:40.195Z,3.50
2018-01-24T04:15:40.165Z,3.40
2018-01-24T04:16:40.173Z,3.60
2018-01-24T04:17:40.129Z,3.60
2018-01-24T04:18:40.109Z,3.50
2018-01-24T04:19:40.094Z,4.00
2018-01-24T04:20:40.080Z,4.00
2018-01-24T04:21:40.073Z,3.90
2018-01-24T04:22:40.045Z,3.60
2018-01-24T04:23:40.012Z,3.80
2018-01-24T04:24:39.989Z,3.70
2018-01-24T04:25:39.970Z,3.80
2018-01-24T04:26:39.980Z,4.10
2018-01-24T04:27:39.959Z,4.10
2018-01-24T04:28:39.938Z,3.90
2018-01-24T04:29:39.918Z,3.70
2018-01-24T04:30:39.903Z,3.70
2018-01-24T04:31:39.853Z,4.10
2018-01-24T04:32:39.859Z,3.80
2018-01-24T04:33:39.817Z,4.80
2018-01-24T04:34:39.796Z,3.80
2018-01-24T04:35:39.805Z,3.70
2018-01-24T04:36:39.790Z,3.50
2018-01-24T04:37:39.739Z,3.50
2018-01-24T04:38:39.748Z,4.00
2018-01-24T04:39:39.729Z,4.20
2018-01-24T04:40:39.683Z,4.00
2018-01-24T04:41:39.676Z,4.00
2018-01-24T04:42:39.641Z,4.00
2018-01-24T04:43:39.654Z,4.20
2018-01-24T04:44:39.630Z,4.70
2018-01-24T04:45:39.583Z,4.30
2018-01-24T04:46:39.572Z,4.70
2018-01-24T04:47:39.544Z,3.80
2018-01-24T04:48:39.552Z,4.20
2018-01-24T04:49:39.538Z,4.60
2018-01-24T04:50:39.514Z,4.10
2018-01-24T04:51:39.483Z,4.50
2018-01-24T04:52:39.449Z,4.40
2018-01-24T04:53:39.456Z,4.00
2018-01-24T04:54:39.421Z,4.10
2018-01-24T04:55:39.417Z,4.40
2018-01-24T04:56:39.398Z,3.60
2018-01-24T04:57:39.351Z,4.00
2018-01-24T04:58:39.892Z,4.40
2018-01-24T04:59:39.315Z,4.60
2018-01-24T05:00:39.296Z,4.10
2018-01-24T05:01:39.275Z,4.10
2018-01-24T05:02:39.287Z,4.00
2018-01-24T05:03:39.233Z,4.20
2018-01-24T05:04:39.232Z,4.00
2018-01-24T05:05:39.225Z,4.00
2018-01-24T05:06:39.209Z,4.30
2018-01-24T05:07:39.157Z,3.80
2018-01-24T05:08:39.167Z,4.10
2018-01-24T05:09:39.116Z,4.10
2018-01-24T05:10:39.108Z,3.80
2018-01-24T05:11:39.082Z,3.60
2018-01-24T05:12:39.060Z,3.90
2018-01-24T05:13:39.071Z,4.00
2018-01-24T05:14:39.051Z,3.50
2018-01-24T05:15:39.029Z,3.10
2018-01-24T05:16:38.999Z,4.00
2018-01-24T05:17:38.963Z,3.30
2018-01-24T05:18:38.970Z,3.30
2018-01-24T05:19:38.955Z,3.60
2018-01-24T05:20:38.934Z,3.50
2018-01-24T05:21:38.897Z,3.50
2018-01-24T05:22:38.871Z,3.50
2018-01-24T05:23:38.874Z,3.30
2018-01-24T05:24:38.855Z,3.40
2018-01-24T05:25:38.807Z,3.90
2018-01-24T05:26:38.816Z,3.10
2018-01-24T05:27:38.782Z,3.90
2018-01-24T05:28:38.749Z,3.80
2018-01-24T05:29:38.732Z,3.80
2018-01-24T05:30:38.719Z,3.70
2018-01-24T05:31:38.705Z,3.90
2018-01-24T05:32:38.711Z,3.80
2018-01-24T05:33:38.680Z,3.50
2018-01-24T05:34:38.659Z,3.80
2018-01-24T05:35:38.615Z,3.40
2018-01-24T05:36:38.599Z,4.20
2018-01-24T05:37:38.575Z,3.40
2018-01-24T05:38:38.581Z,3.60
2018-01-24T05:39:38.566Z,3.80
2018-01-24T05:40:38.544Z,3.10
2018-01-24T05:41:38.500Z,3.50
2018-01-24T05:42:38.489Z,3.80
2018-01-24T05:43:38.484Z,3.80
2018-01-24T05:44:38.451Z,3.80
2018-01-24T05:45:38.431Z,3.30
2018-01-24T05:46:38.988Z,3.50
2018-01-24T05:47:38.393Z,3.40
2018-01-24T05:48:38.372Z,4.00
2018-01-24T05:49:38.370Z,3.80
2018-01-24T05:50:38.333Z,3.70
2018-01-24T05:51:38.318Z,3.60
2018-01-24T05:52:38.285Z,4.10
2018-01-24T05:53:38.288Z,3.60
2018-01-24T05:54:38.277Z,3.70
2018-01-24T05:55:38.229Z,3.80
2018-01-24T05:56:38.207Z,3.60
2018-01-24T05:57:38.189Z,3.80
2018-01-24T05:58:38.191Z,4.00
2018-01-24T05:59:38.147Z,4.50
2018-01-24T06:00:38.130Z,4.50
2018-01-24T06:01:38.108Z,4.10
2018-01-24T06:02:38.115Z,4.20
2018-01-24T06:03:38.075Z,4.40
2018-01-24T06:04:38.051Z,4.50
2018-01-24T06:05:38.031Z,4.40
2018-01-24T06:06:38.012Z,4.10
2018-01-24T06:07:38.019Z,4.70
2018-01-24T06:08:37.977Z,4.80
2018-01-24T06:09:38.010Z,4.70
2018-01-24T06:10:37.960Z,4.80
2018-01-24T06:11:37.940Z,4.80
2018-01-24T06:12:37.890Z,4.20
2018-01-24T06:13:37.882Z,4.70
2018-01-24T06:14:37.860Z,4.80
2018-01-24T06:15:37.841Z,4.30
2018-01-24T06:16:37.841Z,5.00
2018-01-24T06:17:37.821Z,5.20
2018-01-24T06:18:37.802Z,4.10
2018-01-24T06:19:37.782Z,4.60
2018-01-24T06:20:37.764Z,4.90
2018-01-24T06:21:37.715Z,4.70
2018-01-24T06:22:37.728Z,4.70
2018-01-24T06:23:37.679Z,4.80
2018-01-24T06:24:37.684Z,4.40
2018-01-24T06:25:37.683Z,4.40
2018-01-24T06:26:37.616Z,5.10
2018-01-24T06:27:37.613Z,4.30
2018-01-24T06:28:37.606Z,4.80
2018-01-24T06:29:37.590Z,4.60
2018-01-24T06:30:37.541Z,4.80
2018-01-24T06:31:37.548Z,4.70
2018-01-24T06:32:37.507Z,4.80
2018-01-24T06:33:37.491Z,5.20
2018-01-24T06:34:37.469Z,5.20
2018-01-24T06:35:37.470Z,4.70
2018-01-24T06:36:37.428Z,4.10
2018-01-24T06:37:37.410Z,5.20
2018-01-24T06:38:37.381Z,4.50
2018-01-24T06:39:37.392Z,4.70
2018-01-24T06:40:37.368Z,4.90
2018-01-24T06:41:37.350Z,4.90
2018-01-24T06:42:37.332Z,5.40
2018-01-24T06:43:37.285Z,5.10
2018-01-24T06:44:37.265Z,5.10
2018-01-24T06:45:37.255Z,5.20
2018-01-24T06:46:37.335Z,5.40
2018-01-24T06:47:37.211Z,4.70
2018-01-24T06:48:37.200Z,5.80
2018-01-24T06:49:37.169Z,5.40
2018-01-24T06:50:37.156Z,6.10
2018-01-24T06:51:37.132Z,5.30
2018-01-24T06:52:37.109Z,5.80
2018-01-24T06:53:37.124Z,5.30
2018-01-24T06:54:37.103Z,5.90
2018-01-24T06:55:37.073Z,6.80
2018-01-24T06:56:37.056Z,5.90
2018-01-24T06:57:37.041Z,6.10
2018-01-24T06:58:36.992Z,6.60
2018-01-24T06:59:37.003Z,6.40
2018-01-24T07:00:36.950Z,6.30
2018-01-24T07:01:36.937Z,5.90
2018-01-24T07:02:36.942Z,6.10
2018-01-24T07:03:36.894Z,5.40
2018-01-24T07:04:36.873Z,6.30
2018-01-24T07:05:36.856Z,5.60
2018-01-24T07:06:36.862Z,6.20
2018-01-24T07:07:36.817Z,5.40
2018-01-24T07:08:36.825Z,5.80
2018-01-24T07:09:36.781Z,5.70
2018-01-24T07:10:36.770Z,6.10
2018-01-24T07:11:36.755Z,6.00
2018-01-24T07:12:36.731Z,6.50
2018-01-24T07:13:36.699Z,5.10
2018-01-24T07:14:36.710Z,5.50
2018-01-24T07:15:36.665Z,5.40
2018-01-24T07:16:36.643Z,5.30
2018-01-24T07:17:36.624Z,5.60
2018-01-24T07:18:36.602Z,5.20
2018-01-24T07:19:36.591Z,4.40
2018-01-24T07:20:36.565Z,4.40
2018-01-24T07:21:36.571Z,4.80
2018-01-24T07:22:36.529Z,4.70
2018-01-24T07:23:36.518Z,5.20
2018-01-24T07:24:36.486Z,4.50
2018-01-24T07:25:36.493Z,4.50
2018-01-24T07:26:36.458Z,4.20
2018-01-24T07:27:36.426Z,3.60
2018-01-24T07:28:36.403Z,4.10
2018-01-24T07:29:36.403Z,4.10
2018-01-24T07:30:36.370Z,4.60
2018-01-24T07:31:36.359Z,4.20
2018-01-24T07:32:36.338Z,4.20
2018-01-24T07:33:36.375Z,4.40
2018-01-24T07:34:36.293Z,4.70
2018-01-24T07:35:36.282Z,4.10
2018-01-24T07:36:36.247Z,4.20
2018-01-24T07:37:36.228Z,4.30
2018-01-24T07:38:36.212Z,4.10
2018-01-24T07:39:36.221Z,4.00
2018-01-24T07:40:36.176Z,4.30
2018-01-24T07:41:36.150Z,4.40
2018-01-24T07:42:36.131Z,3.70
2018-01-24T07:43:36.141Z,3.70
2018-01-24T07:44:36.110Z,4.40
2018-01-24T07:45:36.172Z,4.20
2018-01-24T07:46:36.083Z,3.90
2018-01-24T07:47:36.055Z,3.80
2018-01-24T07:48:36.046Z,4.40
2018-01-24T07:49:35.999Z,4.10
2018-01-24T07:50:36.004Z,4.30
2018-01-24T07:51:35.954Z,3.70
2018-01-24T07:52:35.943Z,4.10
2018-01-24T07:53:35.915Z,4.20
2018-01-24T07:54:35.899Z,4.30
2018-01-24T07:55:35.884Z,4.10
2018-01-24T07:56:35.857Z,4.00
2018-01-24T07:57:35.867Z,4.00
2018-01-24T07:58:35.818Z,3.90
2018-01-24T07:59:35.806Z,3.60
2018-01-24T08:00:35.785Z,4.20
2018-01-24T08:01:35.758Z,3.70
2018-01-24T08:02:35.743Z,3.90
2018-01-24T08:03:35.723Z,4.10
2018-01-24T08:04:35.711Z,3.70
2018-01-24T08:05:35.706Z,3.30
2018-01-24T08:06:35.690Z,3.70
2018-01-24T08:07:35.641Z,4.10
2018-01-24T08:08:35.622Z,3.90
2018-01-24T08:09:35.627Z,3.90
2018-01-24T08:10:35.585Z,3.90
2018-01-24T08:11:35.589Z,3.60
2018-01-24T08:12:35.543Z,4.10
2018-01-24T08:13:35.549Z,3.70
2018-01-24T08:14:35.529Z,4.20
2018-01-24T08:15:35.513Z,4.50
2018-01-24T08:16:35.520Z,4.40
2018-01-24T08:17:35.448Z,3.90
2018-01-24T08:18:35.433Z,4.10
2018-01-24T08:19:35.406Z,3.80
2018-01-24T08:20:35.420Z,5.00
2018-01-24T08:21:35.399Z,4.40
2018-01-24T08:22:35.351Z,4.50
2018-01-24T08:23:35.331Z,4.60
2018-01-24T08:24:35.336Z,3.90
2018-01-24T08:25:35.317Z,4.20
2018-01-24T08:26:35.270Z,4.50
2018-01-24T08:27:35.270Z,4.90
2018-01-24T08:28:35.248Z,5.20
2018-01-24T08:29:35.238Z,6.30
2018-01-24T08:30:35.194Z,6.20
2018-01-24T08:31:35.171Z,6.00
2018-01-24T08:32:35.152Z,5.60
2018-01-24T08:33:35.139Z,6.70
2018-01-24T08:34:35.112Z,5.40
2018-01-24T08:35:35.097Z,6.20
2018-01-24T08:36:35.070Z,6.90
2018-01-24T08:37:35.051Z,5.90
2018-01-24T08:38:35.063Z,5.00
2018-01-24T08:39:35.014Z,5.10
2018-01-24T08:40:35.024Z,5.40
2018-01-24T08:41:35.003Z,4.60
2018-01-24T08:42:34.959Z,5.30
2018-01-24T08:43:37.010Z,4.50
2018-01-24T08:44:34.915Z,4.50
2018-01-24T08:45:34.899Z,5.00
2018-01-24T08:46:34.885Z,4.40
2018-01-24T08:47:34.868Z,4.30
2018-01-24T08:48:34.845Z,4.40
2018-01-24T08:49:34.818Z,4.40
2018-01-24T08:50:34.798Z,4.50
2018-01-24T08:51:34.776Z,3.60
2018-01-24T08:52:34.758Z,3.50
2018-01-24T08:53:34.751Z,4.20
2018-01-24T08:54:34.715Z,3.50
2018-01-24T08:55:34.702Z,3.80
2018-01-24T08:56:34.687Z,3.20
2018-01-24T08:57:34.659Z,3.40
2018-01-24T08:58:34.666Z,3.90
2018-01-24T08:59:34.622Z,3.60
2018-01-24T09:00:34.604Z,3.50
2018-01-24T09:01:34.614Z,3.70
2018-01-24T09:02:34.590Z,3.90
2018-01-24T09:03:34.539Z,3.80
2018-01-24T09:04:34.522Z,4.00
2018-01-24T09:05:34.529Z,3.70
2018-01-24T09:06:34.488Z,3.40
2018-01-24T09:07:34.465Z,3.80
2018-01-24T09:08:34.451Z,3.70
2018-01-24T09:09:34.427Z,4.40
2018-01-24T09:10:34.414Z,4.60
2018-01-24T09:11:34.385Z,4.00
2018-01-24T09:12:34.366Z,4.00
2018-01-24T09:13:34.357Z,3.60
2018-01-24T09:14:34.546Z,4.20
2018-01-24T09:15:34.336Z,3.90
2018-01-24T09:16:34.316Z,3.80
2018-01-24T09:17:34.303Z,4.10
2018-01-24T09:18:34.250Z,4.00
2018-01-24T09:19:34.260Z,3.60
2018-01-24T09:20:34.213Z,4.60
2018-01-24T09:21:34.191Z,4.10
2018-01-24T09:22:34.176Z,3.90
2018-01-24T09:23:34.181Z,4.00
2018-01-24T09:24:34.133Z,3.90
2018-01-24T09:25:34.114Z,3.70
2018-01-24T09:26:34.128Z,3.70
2018-01-24T09:27:34.076Z,3.50
2018-01-24T09:28:34.060Z,3.50
2018-01-24T09:29:34.041Z,3.70
2018-01-24T09:30:34.018Z,3.70
2018-01-24T09:31:34.032Z,3.80
2018-01-24T09:32:33.980Z,3.50
2018-01-24T09:33:33.959Z,3.80
2018-01-24T09:34:33.971Z,3.90
2018-01-24T09:35:33.953Z,3.20
2018-01-24T09:36:33.906Z,3.40
2018-01-24T09:37:33.884Z,4.10
2018-01-24T09:38:33.868Z,3.10
2018-01-24T09:39:33.846Z,3.20
2018-01-24T09:40:33.825Z,3.00
2018-01-24T09:41:33.832Z,3.80
2018-01-24T09:42:33.793Z,3.30
2018-01-24T09:43:33.800Z,3.60
2018-01-24T09:44:33.778Z,3.70
2018-01-24T09:45:33.731Z,4.10
2018-01-24T09:46:33.710Z,4.00
2018-01-24T09:47:33.709Z,4.40
2018-01-24T09:48:33.695Z,4.20
2018-01-24T09:49:33.664Z,4.20
2018-01-24T09:50:33.638Z,4.80
2018-01-24T09:51:33.650Z,5.40
2018-01-24T09:52:33.598Z,4.60
2018-01-24T09:53:33.584Z,5.20
2018-01-24T09:54:33.561Z,5.90
2018-01-24T09:55:33.571Z,5.50
2018-01-24T09:56:33.522Z,5.10
2018-01-24T09:57:33.507Z,4.80
2018-01-24T09:58:33.503Z,5.30
2018-01-24T09:59:33.472Z,5.40
2018-01-24T10:00:33.464Z,5.10
2018-01-24T10:01:33.458Z,4.90
2018-01-24T10:02:33.443Z,5.10
2018-01-24T10:03:33.424Z,4.70
2018-01-24T10:04:33.385Z,3.80
2018-01-24T10:05:33.359Z,4.50
2018-01-24T10:06:33.368Z,3.30
2018-01-24T10:07:33.323Z,3.50
2018-01-24T10:08:33.330Z,3.50
2018-01-24T10:09:33.319Z,4.60
2018-01-24T10:10:33.297Z,4.30
2018-01-24T10:11:33.263Z,4.00
2018-01-24T10:12:33.252Z,4.20
2018-01-24T10:13:33.244Z,3.70
2018-01-24T10:14:33.196Z,3.50
2018-01-24T10:15:33.195Z,3.70
2018-01-24T10:16:33.163Z,3.80
2018-01-24T10:17:33.145Z,3.60
2018-01-24T10:18:33.120Z,4.00
2018-01-24T10:19:33.135Z,4.00
2018-01-24T10:20:33.090Z,4.20
2018-01-24T10:21:33.102Z,4.20
2018-01-24T10:22:33.053Z,4.80
2018-01-24T10:23:33.042Z,4.80
2018-01-24T10:24:33.042Z,5.10
2018-01-24T10:25:32.999Z,5.10
2018-01-24T10:26:32.993Z,5.00
2018-01-24T10:27:32.962Z,6.30
2018-01-24T10:28:32.959Z,4.50
2018-01-24T10:29:32.930Z,5.00
2018-01-24T10:30:32.948Z,5.70
2018-01-24T10:31:32.921Z,6.80
2018-01-24T10:32:32.873Z,5.60
2018-01-24T10:33:32.881Z,4.80
2018-01-24T10:34:32.842Z,5.70
2018-01-24T10:35:32.846Z,4.90
2018-01-24T10:36:32.804Z,5.80
2018-01-24T10:37:32.785Z,5.80
2018-01-24T10:38:32.766Z,5.20
2018-01-24T10:39:32.764Z,5.90
2018-01-24T10:40:32.742Z,5.70
2018-01-24T10:41:32.724Z,6.40
2018-01-24T10:42:32.720Z,6.00
2018-01-24T10:43:32.684Z,6.80
2018-01-24T10:44:32.669Z,6.00
2018-01-24T10:45:32.648Z,5.40
2018-01-24T10:46:32.626Z,6.40
2018-01-24T10:47:32.607Z,5.70
2018-01-24T10:48:32.603Z,5.20
2018-01-24T10:49:32.583Z,5.30
2018-01-24T10:50:32.562Z,5.90
2018-01-24T10:51:32.540Z,5.70
2018-01-24T10:52:32.518Z,6.10
2018-01-24T10:53:32.507Z,6.20
2018-01-24T10:54:32.514Z,6.00
2018-01-24T10:55:32.500Z,5.80
2018-01-24T10:56:32.481Z,5.80
2018-01-24T10:57:32.434Z,5.60
2018-01-24T10:58:32.418Z,5.80
2018-01-24T10:59:32.427Z,6.80
2018-01-24T11:00:32.411Z,6.60
2018-01-24T11:01:32.394Z,6.80
2018-01-24T11:02:32.351Z,6.40
2018-01-24T11:03:32.334Z,6.30
2018-01-24T11:04:32.342Z,6.30
2018-01-24T11:05:32.294Z,4.60
2018-01-24T11:06:32.310Z,5.20
2018-01-24T11:07:32.267Z,5.60
2018-01-24T11:08:32.246Z,5.70
2018-01-24T11:09:32.234Z,5.80
2018-01-24T11:10:32.214Z,5.10
2018-01-24T11:11:32.209Z,5.00
2018-01-24T11:12:32.209Z,5.30
2018-01-24T11:13:32.192Z,6.40
2018-01-24T11:14:32.146Z,5.60
2018-01-24T11:15:32.133Z,5.80
2018-01-24T11:16:32.124Z,6.10
2018-01-24T11:17:32.092Z,5.70
2018-01-24T11:18:32.105Z,5.90
2018-01-24T11:19:32.079Z,5.30
2018-01-24T11:20:32.053Z,4.80
2018-01-24T11:21:32.034Z,4.80
2018-01-24T11:22:32.016Z,4.60
2018-01-24T11:23:32.045Z,5.00
2018-01-24T11:24:32.010Z,4.50
2018-01-24T11:25:31.997Z,4.70
2018-01-24T11:26:31.979Z,4.60
2018-01-24T11:27:31.964Z,5.00
2018-01-24T11:28:31.944Z,5.40
2018-01-24T11:29:31.911Z,4.80
2018-01-24T11:30:32.253Z,5.30
2018-01-24T11:31:31.899Z,5.00
2018-01-24T11:32:31.890Z,5.60
2018-01-24T11:33:31.845Z,5.50
2018-01-24T11:34:31.855Z,5.30
2018-01-24T11:35:31.815Z,5.50
2018-01-24T11:36:31.800Z,5.80
2018-01-24T11:37:31.782Z,5.80
2018-01-24T11:38:31.786Z,6.10
2018-01-24T11:39:31.783Z,5.30
2018-01-24T11:40:31.770Z,5.20
2018-01-24T11:41:31.723Z,6.00
2018-01-24T11:42:31.712Z,4.70
2018-01-24T11:43:31.698Z,5.20
2018-01-24T11:44:31.708Z,4.90
2018-01-24T11:45:31.696Z,5.00
2018-01-24T11:46:31.679Z,4.60
2018-01-24T11:47:31.647Z,5.00
2018-01-24T11:48:31.655Z,4.90
2018-01-24T11:49:31.612Z,4.40
2018-01-24T11:50:31.607Z,5.20
2018-01-24T11:51:31.616Z,4.50
2018-01-24T11:52:31.601Z,4.40
2018-01-24T11:53:31.588Z,5.20
2018-01-24T11:54:31.550Z,4.70
2018-01-24T11:55:31.544Z,4.70
2018-01-24T11:56:31.527Z,4.90
2018-01-24T11:57:31.542Z,4.20
2018-01-24T11:58:31.518Z,4.90
2018-01-24T11:59:31.527Z,4.60
2018-01-24T12:00:31.500Z,5.10
2018-01-24T12:01:31.500Z,4.90
2018-01-24T12:02:31.464Z,4.40
2018-01-24T12:03:31.458Z,4.40
2018-01-24T12:04:31.449Z,4.50
2018-01-24T12:05:31.441Z,4.60
2018-01-24T12:06:31.433Z,4.50
2018-01-24T12:07:31.432Z,4.80
2018-01-24T12:08:31.445Z,4.70
2018-01-24T12:09:31.436Z,5.00
2018-01-24T12:10:31.402Z,4.60
2018-01-24T12:11:31.405Z,4.50
2018-01-24T12:12:31.389Z,4.20
2018-01-24T12:13:31.378Z,4.10
2018-01-24T12:14:31.396Z,4.50
2018-01-24T12:15:31.386Z,4.90
2018-01-24T12:16:31.384Z,4.70
2018-01-24T12:17:31.372Z,4.40
2018-01-24T12:18:31.342Z,4.20
2018-01-24T12:19:31.335Z,4.00
2018-01-24T12:20:31.326Z,4.60
2018-01-24T12:21:31.315Z,3.80
2018-01-24T12:22:31.312Z,3.20
2018-01-24T12:23:31.304Z,3.30
2018-01-24T12:24:31.322Z,3.20
2018-01-24T12:25:31.289Z,3.60
2018-01-24T12:26:31.292Z,3.30
2018-01-24T12:27:31.305Z,3.40
2018-01-24T12:28:31.262Z,3.30
2018-01-24T12:29:31.261Z,3.10
2018-01-24T12:30:31.277Z,3.20
2018-01-24T12:31:31.255Z,3.20
2018-01-24T12:32:31.262Z,3.20
2018-01-24T12:33:31.224Z,3.20
2018-01-24T12:34:31.236Z,3.30
2018-01-24T12:35:31.212Z,3.60
2018-01-24T12:36:31.207Z,3.50
2018-01-24T12:37:31.224Z,3.30
2018-01-24T12:38:31.231Z,3.50
2018-01-24T12:39:31.178Z,3.40
2018-01-24T12:40:31.202Z,3.10
2018-01-24T12:41:31.160Z,2.80
2018-01-24T12:42:31.158Z,3.20
2018-01-24T12:43:31.147Z,2.90
2018-01-24T12:44:31.134Z,2.80
2018-01-24T12:45:31.151Z,3.00
2018-01-24T12:46:31.121Z,3.00
2018-01-24T12:47:31.111Z,2.70
2018-01-24T12:48:31.107Z,2.80
2018-01-24T12:49:31.119Z,3.00
2018-01-24T12:50:31.088Z,2.90
2018-01-24T12:51:31.084Z,2.80
2018-01-24T12:52:31.079Z,2.80
2018-01-24T12:53:31.064Z,2.80
2018-01-24T12:54:31.053Z,3.20
2018-01-24T12:55:31.049Z,3.00
2018-01-24T12:56:31.052Z,2.80
2018-01-24T12:57:31.035Z,3.00
2018-01-24T12:58:31.025Z,3.50
2018-01-24T12:59:31.051Z,3.30
2018-01-24T13:00:31.038Z,3.40
2018-01-24T13:01:31.009Z,3.20
2018-01-24T13:02:31.021Z,3.40
2018-01-24T13:03:30.995Z,3.40
2018-01-24T13:04:31.007Z,3.80
2018-01-24T13:05:31.000Z,3.30
2018-01-24T13:06:30.967Z,3.90
2018-01-24T13:07:30.990Z,3.40
2018-01-24T13:08:30.972Z,4.00
2018-01-24T13:09:30.966Z,3.70
2018-01-24T13:10:30.963Z,3.70
2018-01-24T13:11:30.924Z,3.90
2018-01-24T13:12:30.920Z,3.90
2018-01-24T13:13:30.909Z,3.60
2018-01-24T13:14:30.922Z,4.40
2018-01-24T13:15:30.895Z,3.90
2018-01-24T13:16:30.919Z,4.30
2018-01-24T13:17:30.910Z,4.50
2018-01-24T13:18:30.931Z,4.70